Time;durP1;ratioP1;P1;durP2;ratioP2;P2;SDS_P1;SDS_P2;PMS_P1;PMS_P2;Temp;Humidity;BMP_temperature;BMP_pressure;BME280_temperature;BME280_humidity;BME280_pressure;Samples;Min_cycle;Max_cycle;Signal;HPM_P1;HPM_P2
2023/04/08 00:00:36;;;;;;;20.13;9.23;;;11.30;99.90;;;;;;7285267;19;20185;-77
2023/04/08 00:03:02;;;;;;;21.80;9.60;;;11.30;99.90;;;;;;7308691;19;20681;-77
2023/04/08 00:05:28;;;;;;;27.67;9.90;;;11.30;99.90;;;;;;7286968;19;20613;-77
2023/04/08 00:07:53;;;;;;;24.50;11.00;;;11.30;99.90;;;;;;7286330;19;20203;-77
2023/04/08 00:10:20;;;;;;;27.20;12.30;;;11.40;99.90;;;;;;7285764;19;20413;-77
2023/04/08 00:12:46;;;;;;;26.10;10.73;;;11.50;99.90;;;;;;7287692;19;20211;-77
2023/04/08 00:15:12;;;;;;;26.27;11.00;;;11.50;99.90;;;;;;7285681;19;20220;-77
2023/04/08 00:17:38;;;;;;;34.50;12.30;;;11.40;99.90;;;;;;7287603;19;20189;-77
2023/04/08 00:20:04;;;;;;;27.53;12.63;;;11.30;99.90;;;;;;7302040;19;20192;-76
2023/04/08 00:22:30;;;;;;;28.53;13.03;;;11.30;99.90;;;;;;7307089;19;20190;-77
2023/04/08 00:24:57;;;;;;;30.87;13.57;;;11.30;99.90;;;;;;7286117;19;20214;-77
2023/04/08 00:27:25;;;;;;;32.83;13.27;;;11.40;99.90;;;;;;7284671;19;20955;-76
2023/04/08 00:29:51;;;;;;;31.60;13.43;;;11.50;99.90;;;;;;7285833;19;20190;-77
2023/04/08 00:32:17;;;;;;;33.43;14.40;;;11.50;99.90;;;;;;7286996;19;20693;-77
2023/04/08 00:34:43;;;;;;;30.60;14.53;;;11.50;99.90;;;;;;7285251;19;20190;-77
2023/04/08 00:37:09;;;;;;;35.50;14.40;;;11.60;99.90;;;;;;7285558;19;20621;-77
2023/04/08 00:39:36;;;;;;;36.30;14.63;;;11.50;99.90;;;;;;7293400;19;20189;-77
2023/04/08 00:42:02;;;;;;;31.87;14.57;;;11.50;99.90;;;;;;7306820;19;20217;-77
2023/04/08 00:44:28;;;;;;;32.67;14.07;;;11.50;99.90;;;;;;7286480;19;20178;-77
2023/04/08 00:46:54;;;;;;;31.43;14.20;;;11.60;99.90;;;;;;7286573;19;20756;-77
2023/04/08 00:49:20;;;;;;;32.90;13.87;;;11.50;99.90;;;;;;7284530;19;20906;-77
2023/04/08 00:51:45;;;;;;;32.33;14.47;;;11.40;99.90;;;;;;7286016;19;20206;-78
2023/04/08 00:54:11;;;;;;;35.50;14.63;;;11.40;99.90;;;;;;7283955;19;20191;-77
2023/04/08 00:56:37;;;;;;;36.50;15.43;;;11.40;99.90;;;;;;7285274;19;20189;-77
2023/04/08 00:59:04;;;;;;;36.03;13.83;;;11.40;99.90;;;;;;7305940;19;20191;-78
2023/04/08 01:01:38;;;;;;;39.43;14.70;;;11.50;99.90;;;;;;7284630;19;20205;-77
2023/04/08 01:04:21;;;;;;;34.73;13.97;;;11.50;99.90;;;;;;7284209;19;20198;-78
2023/04/08 01:06:55;;;;;;;34.03;14.40;;;11.50;99.90;;;;;;7285760;19;20198;-77
2023/04/08 01:09:24;;;;;;;36.07;15.10;;;11.50;99.90;;;;;;7284304;19;20196;-77
2023/04/08 01:11:52;;;;;;;35.30;14.47;;;11.50;99.90;;;;;;7283368;19;20192;-77
2023/04/08 01:14:25;;;;;;;35.00;14.20;;;11.60;99.90;;;;;;7281061;19;20204;-77
2023/04/08 01:16:54;;;;;;;31.80;14.60;;;11.60;99.90;;;;;;7285135;19;20202;-78
2023/04/08 01:19:32;;;;;;;37.80;14.53;;;11.60;99.90;;;;;;7285093;19;20200;-77
2023/04/08 01:22:14;;;;;;;35.43;14.70;;;11.60;99.90;;;;;;7283766;19;20195;-77
2023/04/08 01:24:43;;;;;;;32.50;14.63;;;11.40;99.90;;;;;;7182532;19;2004413;-77
2023/04/08 01:27:10;;;;;;;35.10;15.13;;;11.40;99.90;;;;;;7284821;19;20193;-77
2023/04/08 01:29:37;;;;;;;36.27;16.30;;;11.50;99.90;;;;;;7285019;19;20663;-77
2023/04/08 01:32:06;;;;;;;33.17;13.90;;;11.50;99.90;;;;;;7298587;19;20588;-77
2023/04/08 01:34:34;;;;;;;34.47;13.90;;;11.20;99.90;;;;;;7305740;19;20212;-77
2023/04/08 01:37:01;;;;;;;35.00;14.70;;;11.10;99.90;;;;;;7284936;19;20201;-77
2023/04/08 01:39:29;;;;;;;34.33;14.23;;;11.00;99.90;;;;;;7284453;19;20215;-77
2023/04/08 01:41:56;;;;;;;32.50;14.73;;;10.90;99.90;;;;;;7284845;19;20587;-78
2023/04/08 01:44:25;;;;;;;34.00;14.53;;;10.80;99.90;;;;;;7284299;19;20669;-77
2023/04/08 01:46:52;;;;;;;39.43;15.47;;;11.00;99.90;;;;;;7282840;19;20265;-77
2023/04/08 01:49:20;;;;;;;38.63;15.00;;;11.00;99.90;;;;;;7285095;19;20193;-77
2023/04/08 01:51:47;;;;;;;31.43;14.33;;;11.10;99.90;;;;;;7283748;19;20196;-77
2023/04/08 01:54:14;;;;;;;39.80;15.47;;;11.00;99.90;;;;;;7282638;19;20217;-78
2023/04/08 01:56:43;;;;;;;35.03;14.47;;;10.90;99.90;;;;;;7280582;19;20210;-77
2023/04/08 01:59:13;;;;;;;31.53;14.90;;;11.00;99.90;;;;;;7284421;19;20193;-76
2023/04/08 02:01:41;;;;;;;31.10;14.30;;;11.10;99.90;;;;;;7282072;19;20185;-76
2023/04/08 02:04:07;;;;;;;42.60;15.43;;;11.10;99.90;;;;;;7284720;19;20180;-75
2023/04/08 02:06:33;;;;;;;39.77;15.93;;;11.10;99.90;;;;;;7306788;19;20273;-76
2023/04/08 02:09:00;;;;;;;35.83;16.60;;;11.20;99.90;;;;;;7284047;19;20691;-76
2023/04/08 02:11:25;;;;;;;35.23;16.17;;;11.30;99.90;;;;;;7284248;19;20176;-76
2023/04/08 02:13:52;;;;;;;43.60;16.93;;;11.40;99.90;;;;;;7282695;19;20544;-77
2023/04/08 02:16:23;;;;;;;45.97;16.77;;;11.50;99.90;;;;;;7283232;19;20189;-76
2023/04/08 02:19:17;;;;;;;37.37;16.40;;;11.40;99.90;;;;;;7283379;19;20185;-76
2023/04/08 02:21:49;;;;;;;35.00;14.87;;;11.40;99.90;;;;;;7180731;19;2004502;-76
2023/04/08 02:24:17;;;;;;;35.73;15.87;;;11.30;99.90;;;;;;7285253;19;20186;-76
2023/04/08 02:26:44;;;;;;;34.70;15.27;;;11.30;99.90;;;;;;7289631;19;20233;-76
2023/04/08 02:29:12;;;;;;;34.70;16.03;;;11.30;99.90;;;;;;7289509;19;20250;-76
2023/04/08 02:31:41;;;;;;;38.80;15.83;;;11.30;99.90;;;;;;7290677;19;20615;-76
2023/04/08 02:34:09;;;;;;;35.83;16.00;;;11.40;99.90;;;;;;7289347;19;20205;-76
2023/04/08 02:36:35;;;;;;;39.07;15.77;;;11.50;99.90;;;;;;7304796;19;20272;-76
2023/04/08 02:39:03;;;;;;;36.60;15.97;;;11.50;99.90;;;;;;7310116;19;20269;-77
2023/04/08 02:41:29;;;;;;;38.03;15.90;;;11.50;99.90;;;;;;7289900;19;20206;-76
2023/04/08 02:43:55;;;;;;;32.43;15.53;;;11.50;99.90;;;;;;7290768;19;20206;-76
2023/04/08 02:46:21;;;;;;;37.00;15.60;;;11.40;99.90;;;;;;7288426;19;20202;-77
2023/04/08 02:48:47;;;;;;;42.57;15.97;;;11.30;99.90;;;;;;7288049;19;20198;-77
2023/04/08 02:51:14;;;;;;;37.67;15.43;;;11.30;99.90;;;;;;7288734;19;20202;-76
2023/04/08 02:53:40;;;;;;;35.57;16.30;;;11.40;99.90;;;;;;7288413;19;20290;-76
2023/04/08 02:56:08;;;;;;;34.33;15.83;;;11.20;99.90;;;;;;7290644;19;20207;-76
2023/04/08 02:58:34;;;;;;;42.00;15.73;;;11.20;99.90;;;;;;7311317;19;20185;-76
2023/04/08 03:01:00;;;;;;;31.93;15.83;;;11.30;99.90;;;;;;7288943;19;20281;-77
2023/04/08 03:03:30;;;;;;;37.17;15.87;;;11.30;99.90;;;;;;7289872;19;20186;-77
2023/04/08 03:05:58;;;;;;;37.80;16.27;;;11.30;99.90;;;;;;7289608;19;20190;-76
2023/04/08 03:08:24;;;;;;;40.27;16.93;;;11.30;99.90;;;;;;7288226;19;20665;-76
2023/04/08 03:10:50;;;;;;;33.50;16.33;;;11.40;99.90;;;;;;7289176;19;20268;-76
2023/04/08 03:13:16;;;;;;;40.20;17.03;;;11.40;99.90;;;;;;7287288;19;20192;-77
2023/04/08 03:15:42;;;;;;;32.93;15.77;;;11.40;99.90;;;;;;7287845;19;20188;-76
2023/04/08 03:18:08;;;;;;;36.93;16.67;;;11.40;99.90;;;;;;7288592;19;20182;-77
2023/04/08 03:20:33;;;;;;;40.53;16.07;;;11.30;99.90;;;;;;7310133;19;20712;-76
2023/04/08 03:22:59;;;;;;;42.37;17.30;;;11.30;99.90;;;;;;7289052;19;20633;-76
2023/04/08 03:25:25;;;;;;;35.50;16.83;;;11.30;99.90;;;;;;7288466;19;20184;-76
2023/04/08 03:27:51;;;;;;;39.50;16.83;;;11.40;99.90;;;;;;7288600;19;20252;-76
2023/04/08 03:30:16;;;;;;;35.90;16.40;;;11.40;99.90;;;;;;7287933;19;20205;-76
2023/04/08 03:32:42;;;;;;;35.10;16.17;;;11.40;99.90;;;;;;7287416;19;20185;-76
2023/04/08 03:35:08;;;;;;;29.90;14.77;;;11.30;99.90;;;;;;7286768;19;20678;-76
2023/04/08 03:37:34;;;;;;;32.23;15.10;;;11.30;99.90;;;;;;7307651;19;20685;-76
2023/04/08 03:40:00;;;;;;;38.70;17.93;;;11.20;99.90;;;;;;7287823;19;20688;-76
2023/04/08 03:42:26;;;;;;;36.97;15.87;;;11.20;99.90;;;;;;7286385;19;20611;-76
2023/04/08 03:44:51;;;;;;;34.87;16.37;;;11.30;99.90;;;;;;7289779;19;20656;-76
2023/04/08 03:47:17;;;;;;;32.13;15.67;;;11.40;99.90;;;;;;7286986;19;20225;-77
2023/04/08 03:49:43;;;;;;;34.07;14.83;;;11.40;99.90;;;;;;7288596;19;20208;-76
2023/04/08 03:52:09;;;;;;;30.43;14.13;;;11.40;99.90;;;;;;7287970;19;20301;-76
2023/04/08 03:54:34;;;;;;;27.83;14.33;;;11.40;99.90;;;;;;7306415;19;20669;-76
2023/04/08 03:57:00;;;;;;;35.90;14.60;;;11.30;99.90;;;;;;7296312;19;20660;-77
2023/04/08 03:59:26;;;;;;;29.57;14.07;;;11.20;99.90;;;;;;7286961;19;20254;-77
2023/04/08 04:01:52;;;;;;;29.80;14.30;;;11.20;99.90;;;;;;7286087;19;20196;-76
2023/04/08 04:04:18;;;;;;;33.23;15.17;;;11.20;99.90;;;;;;7286173;19;20576;-76
2023/04/08 04:06:44;;;;;;;36.43;15.43;;;11.30;99.90;;;;;;7286260;19;20252;-76
2023/04/08 04:09:10;;;;;;;28.33;14.10;;;11.30;99.90;;;;;;7286819;19;20519;-76
2023/04/08 04:11:36;;;;;;;36.63;14.80;;;11.30;99.90;;;;;;7296601;19;20206;-76
2023/04/08 04:14:02;;;;;;;40.80;15.77;;;11.30;99.90;;;;;;7308570;19;20200;-77
2023/04/08 04:16:27;;;;;;;33.27;14.13;;;11.20;99.90;;;;;;7286553;19;20182;-76
2023/04/08 04:18:53;;;;;;;29.23;14.03;;;11.20;99.90;;;;;;7286887;19;20206;-77
2023/04/08 04:21:19;;;;;;;33.73;15.73;;;11.20;99.90;;;;;;7285540;19;20194;-76
2023/04/08 04:23:45;;;;;;;34.70;15.37;;;11.20;99.90;;;;;;7286951;19;20213;-77
2023/04/08 04:26:11;;;;;;;32.50;15.60;;;11.30;99.90;;;;;;7287607;19;20193;-76
2023/04/08 04:28:37;;;;;;;35.47;16.00;;;11.30;99.90;;;;;;7286294;19;20227;-76
2023/04/08 04:31:03;;;;;;;39.53;16.03;;;11.30;99.90;;;;;;7309004;19;20189;-77
2023/04/08 04:33:30;;;;;;;30.07;14.73;;;11.30;99.90;;;;;;7286931;19;20209;-77
2023/04/08 04:35:56;;;;;;;35.70;15.27;;;11.30;99.90;;;;;;7286242;19;20666;-76
2023/04/08 04:38:21;;;;;;;36.83;15.77;;;11.20;99.90;;;;;;7288026;19;20190;-76
2023/04/08 04:40:47;;;;;;;30.80;15.37;;;11.20;99.90;;;;;;7284974;19;20218;-77
2023/04/08 04:43:13;;;;;;;34.80;15.73;;;11.10;99.90;;;;;;7285352;19;20196;-76
2023/04/08 04:45:39;;;;;;;29.60;15.20;;;11.00;99.90;;;;;;7286773;19;20277;-76
2023/04/08 04:48:04;;;;;;;30.43;15.77;;;11.00;99.90;;;;;;7307071;19;20255;-76
2023/04/08 04:50:30;;;;;;;31.70;16.23;;;11.00;99.90;;;;;;7286196;19;20200;-77
2023/04/08 04:52:56;;;;;;;28.10;15.93;;;11.10;99.90;;;;;;7285402;19;20193;-77
2023/04/08 04:55:21;;;;;;;34.80;15.90;;;11.20;99.90;;;;;;7283791;19;20884;-77
2023/04/08 04:57:48;;;;;;;27.90;15.50;;;11.20;99.90;;;;;;7284963;19;20199;-77
2023/04/08 05:00:15;;;;;;;30.33;16.27;;;11.30;99.90;;;;;;7283767;19;20191;-76
2023/04/08 05:02:40;;;;;;;38.50;16.43;;;11.20;99.90;;;;;;7285141;19;20196;-76
2023/04/08 05:05:06;;;;;;;30.90;15.57;;;11.10;99.90;;;;;;7289387;19;20188;-77
2023/04/08 05:07:36;;;;;;;38.17;15.73;;;11.10;99.90;;;;;;7307399;19;20189;-76
2023/04/08 05:10:03;;;;;;;31.87;16.67;;;11.00;99.90;;;;;;7286521;19;20193;-76
2023/04/08 05:12:29;;;;;;;38.47;16.90;;;11.00;99.90;;;;;;7285731;19;20207;-77
2023/04/08 05:14:54;;;;;;;36.97;16.97;;;11.00;99.90;;;;;;7283455;19;20199;-77
2023/04/08 05:17:20;;;;;;;34.73;15.93;;;11.00;99.90;;;;;;7285702;19;20195;-76
2023/04/08 05:19:45;;;;;;;36.73;16.53;;;11.10;99.90;;;;;;7285719;19;20189;-76
2023/04/08 05:22:11;;;;;;;37.57;17.67;;;11.10;99.90;;;;;;7284157;19;20181;-76
2023/04/08 05:24:37;;;;;;;38.17;17.27;;;11.10;99.90;;;;;;7287465;19;20218;-76
2023/04/08 05:27:02;;;;;;;35.90;17.17;;;11.20;99.90;;;;;;7307263;19;20181;-77
2023/04/08 05:29:28;;;;;;;44.10;18.00;;;11.20;99.90;;;;;;7284519;19;20193;-76
2023/04/08 05:31:55;;;;;;;35.67;17.80;;;11.20;99.90;;;;;;7283422;19;20193;-76
2023/04/08 05:34:21;;;;;;;33.10;17.33;;;11.20;99.90;;;;;;7285521;19;20230;-77
2023/04/08 05:36:53;;;;;;;41.23;18.53;;;11.20;99.90;;;;;;7284744;19;20217;-77
2023/04/08 05:39:19;;;;;;;37.13;18.40;;;11.10;99.90;;;;;;7283674;19;20213;-77
2023/04/08 05:41:45;;;;;;;36.83;17.50;;;11.10;99.90;;;;;;7285593;19;20200;-78
2023/04/08 05:44:12;;;;;;;39.93;18.83;;;11.20;99.90;;;;;;7285505;19;20697;-77
2023/04/08 05:46:38;;;;;;;40.20;17.60;;;11.20;99.90;;;;;;7286184;19;20200;-78
2023/04/08 05:49:04;;;;;;;36.27;17.60;;;11.10;99.90;;;;;;7303923;19;20675;-77
2023/04/08 05:51:30;;;;;;;32.57;16.90;;;11.10;99.90;;;;;;7283554;19;20805;-78
2023/04/08 05:53:55;;;;;;;30.53;17.23;;;11.10;99.90;;;;;;7283828;19;20206;-78
2023/04/08 05:56:21;;;;;;;40.53;17.67;;;11.10;99.90;;;;;;7285549;19;20199;-79
2023/04/08 05:58:47;;;;;;;38.00;17.50;;;11.20;99.90;;;;;;7283137;19;20622;-79
2023/04/08 06:01:13;;;;;;;36.00;17.50;;;11.30;99.90;;;;;;7284614;19;20651;-78
2023/04/08 06:03:38;;;;;;;35.60;17.27;;;11.20;99.90;;;;;;7282769;19;20222;-80
2023/04/08 06:06:10;;;;;;;31.37;16.70;;;11.30;99.90;;;;;;7306949;19;20187;-79
2023/04/08 06:08:36;;;;;;;37.17;17.70;;;11.30;99.90;;;;;;7271370;19;20190;-78
2023/04/08 06:11:04;;;;;;;34.93;17.63;;;11.30;99.90;;;;;;7306653;19;20192;-79
2023/04/08 06:13:30;;;;;;;42.53;18.53;;;11.40;99.90;;;;;;7282369;19;20182;-80
2023/04/08 06:15:56;;;;;;;35.17;19.17;;;11.40;99.90;;;;;;7282497;19;20187;-81
2023/04/08 06:18:22;;;;;;;35.60;17.97;;;11.50;99.90;;;;;;7281540;19;20194;-84
2023/04/08 06:20:48;;;;;;;38.97;18.83;;;11.60;99.90;;;;;;7284062;19;20193;-77
2023/04/08 06:23:13;;;;;;;37.37;18.23;;;11.60;99.90;;;;;;7282459;19;20188;-77
2023/04/08 06:25:39;;;;;;;40.40;18.53;;;11.40;99.90;;;;;;7284591;19;20185;-77
2023/04/08 06:28:05;;;;;;;38.17;18.73;;;11.30;99.90;;;;;;7306265;19;20199;-78
2023/04/08 06:30:30;;;;;;;40.20;19.67;;;11.20;99.90;;;;;;7285292;19;20249;-77
2023/04/08 06:32:56;;;;;;;44.00;18.93;;;11.40;99.90;;;;;;7283793;19;20182;-78
2023/04/08 06:35:22;;;;;;;40.10;19.00;;;11.50;99.90;;;;;;7282105;19;20185;-77
2023/04/08 06:37:47;;;;;;;36.23;19.20;;;11.30;99.90;;;;;;7283121;19;20200;-77
2023/04/08 06:40:13;;;;;;;38.97;19.80;;;11.30;99.90;;;;;;7280138;19;20185;-77
2023/04/08 06:42:41;;;;;;;34.03;18.67;;;11.20;99.90;;;;;;7283239;19;20190;-77
2023/04/08 06:45:17;;;;;;;39.97;19.37;;;11.20;99.90;;;;;;7283157;19;20193;-77
2023/04/08 06:47:43;;;;;;;35.93;19.30;;;11.10;99.90;;;;;;7281697;19;20195;-77
2023/04/08 06:50:09;;;;;;;35.90;19.67;;;11.20;99.90;;;;;;7283252;19;20202;-76
2023/04/08 06:52:35;;;;;;;38.90;19.57;;;11.40;99.90;;;;;;7303963;19;20304;-77
2023/04/08 06:55:00;;;;;;;45.20;19.43;;;11.40;99.90;;;;;;7282363;19;20693;-77
2023/04/08 06:57:26;;;;;;;36.77;19.80;;;11.40;99.90;;;;;;7282149;19;20182;-76
2023/04/08 06:59:52;;;;;;;39.93;19.40;;;11.40;99.90;;;;;;7282819;19;20244;-77
2023/04/08 07:02:18;;;;;;;38.80;18.97;;;11.30;99.90;;;;;;7281354;19;20240;-77
2023/04/08 07:04:44;;;;;;;38.20;19.93;;;11.30;99.90;;;;;;7282177;19;20204;-77
2023/04/08 07:07:09;;;;;;;40.47;20.20;;;11.30;99.90;;;;;;7281892;19;20189;-76
2023/04/08 07:09:35;;;;;;;41.10;19.53;;;11.30;99.90;;;;;;7304276;19;20265;-77
2023/04/08 07:12:03;;;;;;;35.23;18.57;;;11.30;99.90;;;;;;7284923;19;20190;-77
2023/04/08 07:14:29;;;;;;;34.70;18.67;;;11.40;99.90;;;;;;7286771;19;20216;-77
2023/04/08 07:16:55;;;;;;;37.30;19.23;;;11.20;99.90;;;;;;7287157;19;20194;-77
2023/04/08 07:19:23;;;;;;;34.93;18.63;;;11.40;99.90;;;;;;7286092;19;20654;-77
2023/04/08 07:21:49;;;;;;;41.50;18.87;;;11.50;99.90;;;;;;7287938;19;20641;-76
2023/04/08 07:24:14;;;;;;;41.30;18.70;;;11.40;99.90;;;;;;7287696;19;20193;-76
2023/04/08 07:26:40;;;;;;;39.40;19.60;;;11.50;99.90;;;;;;7287264;19;20214;-76
2023/04/08 07:29:06;;;;;;;38.87;20.33;;;11.70;99.90;;;;;;7298639;19;20187;-76
2023/04/08 07:31:32;;;;;;;35.77;19.13;;;11.90;99.90;;;;;;7307985;19;20667;-77
2023/04/08 07:33:58;;;;;;;40.17;19.33;;;12.00;99.90;;;;;;7288485;19;20915;-77
2023/04/08 07:36:23;;;;;;;38.97;18.83;;;12.30;99.90;;;;;;7289407;19;20186;-77
2023/04/08 07:38:50;;;;;;;37.27;17.97;;;12.30;99.90;;;;;;7288374;19;20531;-77
2023/04/08 07:41:16;;;;;;;39.10;18.47;;;12.40;99.90;;;;;;7286379;19;20181;-77
2023/04/08 07:43:41;;;;;;;32.73;18.83;;;12.50;99.90;;;;;;7288388;19;20265;-77
2023/04/08 07:46:07;;;;;;;31.63;17.43;;;12.60;99.90;;;;;;7288877;19;20187;-77
2023/04/08 07:48:34;;;;;;;35.20;17.70;;;12.90;99.90;;;;;;7309017;19;20191;-78
2023/04/08 07:51:05;;;;;;;32.90;17.53;;;13.20;99.90;;;;;;7286897;19;20274;-77
2023/04/08 07:53:32;;;;;;;28.47;16.50;;;13.40;99.90;;;;;;7288412;19;20189;-77
2023/04/08 07:55:58;;;;;;;24.73;12.60;;;13.40;99.90;;;;;;7284825;19;20229;-78
2023/04/08 07:58:24;;;;;;;27.83;13.03;;;13.00;99.90;;;;;;7287032;19;20187;-77
2023/04/08 08:00:50;;;;;;;26.10;12.00;;;13.00;99.90;;;;;;7287097;19;20186;-77
2023/04/08 08:03:16;;;;;;;26.10;12.50;;;13.30;99.90;;;;;;7286036;19;20227;-77
2023/04/08 08:05:41;;;;;;;28.23;12.80;;;13.50;99.90;;;;;;7289096;19;20651;-78
2023/04/08 08:08:10;;;;;;;29.23;14.00;;;13.70;99.90;;;;;;7286861;19;20184;-76
2023/04/08 08:10:36;;;;;;;22.87;12.00;;;13.90;99.90;;;;;;7304981;19;20554;-76
2023/04/08 08:13:02;;;;;;;22.13;11.63;;;13.50;99.90;;;;;;7305486;19;20209;-77
2023/04/08 08:15:27;;;;;;;19.70;11.10;;;13.30;99.90;;;;;;7285833;19;20190;-77
2023/04/08 08:17:53;;;;;;;17.47;8.60;;;13.40;99.90;;;;;;7287321;19;20213;-77
2023/04/08 08:20:19;;;;;;;23.20;10.20;;;13.40;99.90;;;;;;7287091;19;20192;-77
2023/04/08 08:22:45;;;;;;;22.07;11.37;;;13.30;99.90;;;;;;7284643;19;20191;-77
2023/04/08 08:25:10;;;;;;;26.83;13.47;;;13.40;99.90;;;;;;7286286;19;20198;-76
2023/04/08 08:27:36;;;;;;;27.37;12.80;;;13.10;99.90;;;;;;7300004;19;20211;-76
2023/04/08 08:30:03;;;;;;;27.10;14.10;;;13.20;99.90;;;;;;7301323;19;20215;-77
2023/04/08 08:32:28;;;;;;;23.07;12.57;;;13.40;99.90;;;;;;7286786;19;20219;-77
2023/04/08 08:34:54;;;;;;;25.73;12.87;;;13.00;99.90;;;;;;7286129;19;20650;-77
2023/04/08 08:37:20;;;;;;;25.63;13.37;;;12.80;99.90;;;;;;7285807;19;20256;-77
2023/04/08 08:39:45;;;;;;;26.53;12.73;;;12.70;99.90;;;;;;7286253;19;20628;-77
2023/04/08 08:42:21;;;;;;;25.87;13.43;;;12.80;99.90;;;;;;7285567;19;20191;-78
2023/04/08 08:44:48;;;;;;;24.20;11.67;;;13.00;99.90;;;;;;7285856;19;20255;-78
2023/04/08 08:47:14;;;;;;;22.97;12.03;;;12.90;99.90;;;;;;7285106;19;20194;-77
2023/04/08 08:49:40;;;;;;;24.17;12.07;;;12.90;99.90;;;;;;7285246;19;20717;-77
2023/04/08 08:52:06;;;;;;;21.93;11.83;;;12.70;99.90;;;;;;7301376;19;20225;-77
2023/04/08 08:54:32;;;;;;;22.40;11.87;;;12.90;99.90;;;;;;7300416;19;20649;-77
2023/04/08 08:56:58;;;;;;;23.93;11.87;;;13.10;99.90;;;;;;7286366;19;20195;-78
2023/04/08 08:59:23;;;;;;;21.67;11.43;;;13.20;99.90;;;;;;7286576;19;20193;-78
2023/04/08 09:01:49;;;;;;;22.47;11.70;;;13.30;99.90;;;;;;7285412;19;20190;-78
2023/04/08 09:04:18;;;;;;;26.33;12.20;;;13.20;99.90;;;;;;7286779;19;20199;-77
2023/04/08 09:06:46;;;;;;;21.87;11.27;;;13.30;99.90;;;;;;7285467;19;20211;-77
2023/04/08 09:09:12;;;;;;;20.77;11.50;;;13.10;99.90;;;;;;7284756;19;20187;-77
2023/04/08 09:11:46;;;;;;;23.23;12.53;;;12.90;99.90;;;;;;7287011;19;20220;-77
2023/04/08 09:14:20;;;;;;;19.67;10.63;;;12.60;99.90;;;;;;7286113;19;20285;-77
2023/04/08 09:16:46;;;;;;;23.67;12.63;;;12.70;99.90;;;;;;7283841;19;20190;-78
2023/04/08 09:19:12;;;;;;;26.17;12.80;;;12.90;99.90;;;;;;7284969;19;20190;-78
2023/04/08 09:21:40;;;;;;;22.27;11.13;;;13.20;99.90;;;;;;7285066;19;20656;-76
2023/04/08 09:24:06;;;;;;;26.27;12.40;;;13.30;99.90;;;;;;7308315;19;20198;-77
2023/04/08 09:26:32;;;;;;;22.90;11.80;;;13.50;99.90;;;;;;7286688;19;20185;-77
2023/04/08 09:29:04;;;;;;;18.50;11.27;;;13.50;99.90;;;;;;7285670;19;20249;-77
2023/04/08 09:31:42;;;;;;;26.90;11.77;;;13.50;99.90;;;;;;7284041;19;20192;-77
2023/04/08 09:34:20;;;;;;;23.07;12.63;;;13.70;99.90;;;;;;7263871;19;20190;-77
2023/04/08 09:36:47;;;;;;;22.03;11.57;;;13.80;99.90;;;;;;7283001;19;20188;-77
2023/04/08 09:39:14;;;;;;;20.73;11.73;;;13.80;99.90;;;;;;7284544;19;20304;-77
2023/04/08 09:41:41;;;;;;;19.23;11.80;;;13.60;99.90;;;;;;7283272;19;20188;-77
2023/04/08 09:44:09;;;;;;;23.80;11.97;;;13.40;99.90;;;;;;7294249;19;20192;-77
2023/04/08 09:46:51;;;;;;;21.13;12.60;;;13.50;99.90;;;;;;7307657;19;20199;-78
2023/04/08 09:49:36;;;;;;;25.50;11.93;;;13.50;99.90;;;;;;7180563;19;2004759;-78
2023/04/08 09:52:23;;;;;;;19.30;10.47;;;13.60;99.90;;;;;;7285806;19;20185;-77
2023/04/08 09:55:04;;;;;;;21.80;9.53;;;13.30;99.90;;;;;;7179731;19;2004761;-77
2023/04/08 09:57:43;;;;;;;22.57;10.73;;;13.10;99.90;;;;;;7283051;19;20247;-77
2023/04/08 10:00:16;;;;;;;20.17;11.00;;;12.90;99.90;;;;;;7262817;19;20203;-77
2023/04/08 10:03:00;;;;;;;21.27;11.97;;;12.80;99.90;;;;;;7283901;19;20226;-78
2023/04/08 10:05:26;;;;;;;20.37;12.30;;;12.70;99.90;;;;;;7284728;19;20317;-77
2023/04/08 10:07:54;;;;;;;24.10;11.80;;;13.00;99.90;;;;;;7284463;19;20209;-77
2023/04/08 10:10:21;;;;;;;21.27;11.77;;;13.20;99.90;;;;;;7282926;19;20642;-78
2023/04/08 10:12:47;;;;;;;19.27;12.10;;;13.40;99.90;;;;;;7282175;19;20196;-78
2023/04/08 10:15:25;;;;;;;23.90;13.23;;;13.50;99.90;;;;;;7282562;19;20221;-77
2023/04/08 10:18:03;;;;;;;22.37;11.97;;;13.90;99.90;;;;;;7283239;19;20211;-77
2023/04/08 10:20:35;;;;;;;23.93;12.17;;;14.10;99.90;;;;;;7283140;19;20528;-77
2023/04/08 10:23:06;;;;;;;21.80;12.73;;;14.30;99.90;;;;;;7283050;19;20204;-77
2023/04/08 10:25:36;;;;;;;23.83;12.53;;;14.60;99.90;;;;;;7283685;19;20264;-78
2023/04/08 10:28:23;;;;;;;20.43;11.47;;;15.10;99.90;;;;;;7283603;19;20186;-79
2023/04/08 10:30:49;;;;;;;21.50;11.93;;;15.80;99.90;;;;;;7179707;19;2004566;-77
2023/04/08 10:33:16;;;;;;;22.87;11.23;;;16.30;99.90;;;;;;7285081;19;20203;-77
2023/04/08 10:35:46;;;;;;;22.13;11.63;;;17.00;99.90;;;;;;7282965;19;20206;-78
2023/04/08 10:38:15;;;;;;;19.30;10.27;;;17.90;99.90;;;;;;7284205;19;20185;-78
2023/04/08 10:40:42;;;;;;;18.37;10.30;;;18.90;99.90;;;;;;7282392;19;20215;-77
2023/04/08 10:43:10;;;;;;;20.97;10.07;;;20.40;99.90;;;;;;7283008;19;20184;-78
2023/04/08 10:45:36;;;;;;;19.50;10.10;;;23.10;99.90;;;;;;7306985;19;20210;-78
2023/04/08 10:48:19;;;;;;;17.13;10.20;;;24.10;99.90;;;;;;7290137;19;20209;-78
2023/04/08 10:51:01;;;;;;;16.27;10.07;;;23.60;99.90;;;;;;7186582;19;2004722;-78
2023/04/08 10:53:31;;;;;;;20.33;9.90;;;22.40;99.90;;;;;;7289138;19;20316;-78
2023/04/08 10:56:24;;;;;;;18.97;10.13;;;21.10;99.90;;;;;;7287451;19;20209;-78
2023/04/08 10:58:51;;;;;;;19.50;10.50;;;19.60;99.90;;;;;;7186329;19;2004574;-78
2023/04/08 11:01:18;;;;;;;21.40;12.07;;;18.70;99.90;;;;;;7288010;19;20193;-77
2023/04/08 11:03:44;;;;;;;24.97;12.00;;;18.00;99.90;;;;;;7289648;19;20195;-77
2023/04/08 11:06:10;;;;;;;23.93;13.60;;;17.30;99.90;;;;;;7290044;19;20191;-77
2023/04/08 11:08:36;;;;;;;25.87;14.33;;;16.70;99.90;;;;;;7311117;19;20196;-77
2023/04/08 11:11:07;;;;;;;20.73;13.37;;;16.40;99.90;;;;;;7290020;19;20555;-78
2023/04/08 11:13:35;;;;;;;24.80;13.73;;;16.10;99.90;;;;;;7289531;19;20653;-77
2023/04/08 11:16:03;;;;;;;23.50;14.00;;;15.80;99.90;;;;;;7288266;19;20195;-78
2023/04/08 11:18:30;;;;;;;23.30;12.43;;;15.50;99.90;;;;;;7287548;19;20650;-78
2023/04/08 11:20:57;;;;;;;21.50;13.17;;;15.00;99.90;;;;;;7286906;19;20644;-78
2023/04/08 11:23:26;;;;;;;21.53;12.57;;;14.50;99.90;;;;;;7289295;19;20198;-78
2023/04/08 11:25:52;;;;;;;25.27;13.23;;;14.20;99.90;;;;;;7289029;19;20189;-77
2023/04/08 11:28:18;;;;;;;20.47;13.00;;;14.40;99.90;;;;;;7287491;19;20188;-78
2023/04/08 11:30:44;;;;;;;20.00;11.87;;;14.50;99.90;;;;;;7288563;19;20800;-78
2023/04/08 11:33:12;;;;;;;23.27;13.53;;;14.40;99.90;;;;;;7289331;19;20192;-78
2023/04/08 11:35:41;;;;;;;22.07;13.50;;;14.60;99.90;;;;;;7295223;19;20302;-77
2023/04/08 11:38:08;;;;;;;23.83;13.43;;;14.60;99.90;;;;;;7302596;19;20208;-77
2023/04/08 11:40:34;;;;;;;21.00;12.73;;;14.70;99.90;;;;;;7310888;19;20209;-78
2023/04/08 11:43:08;;;;;;;26.27;13.50;;;14.50;99.90;;;;;;7287258;19;20681;-78
2023/04/08 11:45:38;;;;;;;24.00;13.10;;;14.50;99.90;;;;;;7289655;19;20189;-78
2023/04/08 11:48:15;;;;;;;23.67;13.47;;;14.60;99.90;;;;;;7288680;19;20200;-76
2023/04/08 11:50:42;;;;;;;26.00;13.70;;;14.90;99.90;;;;;;7266394;19;20408;-78
2023/04/08 11:53:18;;;;;;;26.83;14.53;;;15.20;99.90;;;;;;7295207;19;20281;-78
2023/04/08 11:55:44;;;;;;;21.10;13.63;;;15.40;99.90;;;;;;7287654;19;20590;-78
2023/04/08 11:58:10;;;;;;;21.90;12.53;;;15.70;99.90;;;;;;7288110;19;20184;-80
2023/04/08 12:00:36;;;;;;;22.03;13.60;;;16.00;99.90;;;;;;7308850;19;20178;-79
2023/04/08 12:03:02;;;;;;;22.53;13.10;;;16.30;99.90;;;;;;7286357;19;20259;-79
2023/04/08 12:05:27;;;;;;;21.63;12.77;;;16.60;99.90;;;;;;7288600;19;20185;-78
2023/04/08 12:07:53;;;;;;;22.73;12.60;;;16.90;99.90;;;;;;7287827;19;20209;-78
2023/04/08 12:10:19;;;;;;;25.70;13.43;;;17.20;99.90;;;;;;7286762;19;20212;-79
2023/04/08 12:12:45;;;;;;;23.23;12.60;;;17.30;99.90;;;;;;7288759;19;20183;-79
2023/04/08 12:15:10;;;;;;;20.53;12.77;;;17.30;99.90;;;;;;7286228;19;20225;-77
2023/04/08 12:17:39;;;;;;;20.53;12.23;;;17.50;99.90;;;;;;7308059;19;20192;-79
2023/04/08 12:20:06;;;;;;;17.53;12.00;;;17.90;99.90;;;;;;7287949;19;20184;-78
2023/04/08 12:22:32;;;;;;;22.47;13.13;;;18.10;99.90;;;;;;7288077;19;20189;-80
2023/04/08 12:24:58;;;;;;;20.27;12.23;;;17.80;99.90;;;;;;7287152;19;20198;-80
2023/04/08 12:27:23;;;;;;;19.67;12.53;;;17.90;99.90;;;;;;7287457;19;20179;-79